sensor_id;sensor_type;location;lat;lon;timestamp;P1;durP1;ratioP1;P2;durP2;ratioP2
48034;SDS011;33812;46.480;6.834;2023-03-13T00:00:13;3.40;;;0.85;;
48034;SDS011;33812;46.480;6.834;2023-03-13T00:04:18;2.30;;;0.70;;
48034;SDS011;33812;46.480;6.834;2023-03-13T00:08:21;5.28;;;1.25;;
48034;SDS011;33812;46.480;6.834;2023-03-13T00:12:25;3.30;;;0.90;;
48034;SDS011;33812;46.480;6.834;2023-03-13T00:16:29;2.55;;;0.80;;
48034;SDS011;33812;46.480;6.834;2023-03-13T00:20:33;3.42;;;0.98;;
48034;SDS011;33812;46.480;6.834;2023-03-13T00:24:36;2.25;;;0.70;;
48034;SDS011;33812;46.480;6.834;2023-03-13T00:28:38;9.73;;;2.00;;
48034;SDS011;33812;46.480;6.834;2023-03-13T00:32:41;1.90;;;0.73;;
48034;SDS011;33812;46.480;6.834;2023-03-13T00:36:45;2.80;;;0.98;;
48034;SDS011;33812;46.480;6.834;2023-03-13T00:40:48;2.50;;;0.82;;
48034;SDS011;33812;46.480;6.834;2023-03-13T00:44:52;4.93;;;1.35;;
48034;SDS011;33812;46.480;6.834;2023-03-13T00:48:54;9.10;;;1.95;;
48034;SDS011;33812;46.480;6.834;2023-03-13T00:52:56;3.40;;;1.13;;
48034;SDS011;33812;46.480;6.834;2023-03-13T00:57:00;4.30;;;1.10;;
48034;SDS011;33812;46.480;6.834;2023-03-13T01:01:05;4.78;;;1.30;;
48034;SDS011;33812;46.480;6.834;2023-03-13T01:05:08;5.70;;;1.33;;
48034;SDS011;33812;46.480;6.834;2023-03-13T01:09:18;1.55;;;0.57;;
48034;SDS011;33812;46.480;6.834;2023-03-13T01:13:22;1.63;;;0.60;;
48034;SDS011;33812;46.480;6.834;2023-03-13T01:17:27;2.30;;;0.63;;
48034;SDS011;33812;46.480;6.834;2023-03-13T01:30:12;2.97;;;0.88;;
48034;SDS011;33812;46.480;6.834;2023-03-13T01:34:15;4.03;;;0.95;;
48034;SDS011;33812;46.480;6.834;2023-03-13T01:38:17;4.00;;;1.05;;
48034;SDS011;33812;46.480;6.834;2023-03-13T01:42:19;3.55;;;0.93;;
48034;SDS011;33812;46.480;6.834;2023-03-13T01:46:22;2.42;;;0.88;;
48034;SDS011;33812;46.480;6.834;2023-03-13T01:50:27;1.58;;;0.60;;
48034;SDS011;33812;46.480;6.834;2023-03-13T01:54:29;2.90;;;0.95;;
48034;SDS011;33812;46.480;6.834;2023-03-13T01:58:35;2.28;;;0.93;;
48034;SDS011;33812;46.480;6.834;2023-03-13T02:02:43;3.53;;;0.90;;
48034;SDS011;33812;46.480;6.834;2023-03-13T02:06:55;1.77;;;0.60;;
48034;SDS011;33812;46.480;6.834;2023-03-13T02:11:03;5.60;;;1.25;;
48034;SDS011;33812;46.480;6.834;2023-03-13T02:15:11;7.50;;;1.80;;
48034;SDS011;33812;46.480;6.834;2023-03-13T02:19:17;5.65;;;1.20;;
48034;SDS011;33812;46.480;6.834;2023-03-13T02:23:26;4.68;;;1.05;;
48034;SDS011;33812;46.480;6.834;2023-03-13T02:27:33;2.75;;;0.65;;
48034;SDS011;33812;46.480;6.834;2023-03-13T02:31:35;3.13;;;0.88;;
48034;SDS011;33812;46.480;6.834;2023-03-13T02:35:38;2.50;;;0.77;;
48034;SDS011;33812;46.480;6.834;2023-03-13T02:39:43;2.45;;;0.68;;
48034;SDS011;33812;46.480;6.834;2023-03-13T02:43:49;4.55;;;1.02;;
48034;SDS011;33812;46.480;6.834;2023-03-13T02:47:51;2.05;;;0.57;;
48034;SDS011;33812;46.480;6.834;2023-03-13T02:51:55;2.00;;;0.80;;
48034;SDS011;33812;46.480;6.834;2023-03-13T03:00:01;2.65;;;0.68;;
48034;SDS011;33812;46.480;6.834;2023-03-13T03:04:06;7.53;;;1.65;;
48034;SDS011;33812;46.480;6.834;2023-03-13T03:08:13;1.20;;;0.65;;
48034;SDS011;33812;46.480;6.834;2023-03-13T03:12:16;2.05;;;0.60;;
48034;SDS011;33812;46.480;6.834;2023-03-13T03:16:32;1.35;;;0.60;;
48034;SDS011;33812;46.480;6.834;2023-03-13T03:24:45;2.78;;;0.82;;
48034;SDS011;33812;46.480;6.834;2023-03-13T03:28:48;3.38;;;0.90;;
48034;SDS011;33812;46.480;6.834;2023-03-13T03:32:51;2.45;;;0.75;;
48034;SDS011;33812;46.480;6.834;2023-03-13T03:36:53;4.82;;;1.10;;
48034;SDS011;33812;46.480;6.834;2023-03-13T03:41:02;2.38;;;0.75;;
48034;SDS011;33812;46.480;6.834;2023-03-13T03:45:15;1.75;;;0.60;;
48034;SDS011;33812;46.480;6.834;2023-03-13T03:49:18;9.77;;;1.50;;
48034;SDS011;33812;46.480;6.834;2023-03-13T03:53:20;3.50;;;0.98;;
48034;SDS011;33812;46.480;6.834;2023-03-13T03:57:23;2.40;;;0.90;;
48034;SDS011;33812;46.480;6.834;2023-03-13T04:01:24;4.47;;;1.20;;
48034;SDS011;33812;46.480;6.834;2023-03-13T04:05:28;1.33;;;0.65;;
48034;SDS011;33812;46.480;6.834;2023-03-13T04:09:34;7.32;;;1.60;;
48034;SDS011;33812;46.480;6.834;2023-03-13T04:13:35;4.15;;;1.08;;
48034;SDS011;33812;46.480;6.834;2023-03-13T04:17:43;1.73;;;0.52;;
48034;SDS011;33812;46.480;6.834;2023-03-13T04:21:46;2.42;;;0.70;;
48034;SDS011;33812;46.480;6.834;2023-03-13T04:26:01;1.55;;;0.45;;
48034;SDS011;33812;46.480;6.834;2023-03-13T04:30:09;0.95;;;0.38;;
48034;SDS011;33812;46.480;6.834;2023-03-13T04:34:12;2.88;;;0.63;;
48034;SDS011;33812;46.480;6.834;2023-03-13T04:38:15;5.82;;;1.30;;
48034;SDS011;33812;46.480;6.834;2023-03-13T04:42:16;1.95;;;0.70;;
48034;SDS011;33812;46.480;6.834;2023-03-13T04:46:18;3.85;;;0.95;;
48034;SDS011;33812;46.480;6.834;2023-03-13T04:55:02;1.73;;;0.73;;
48034;SDS011;33812;46.480;6.834;2023-03-13T04:59:04;1.30;;;0.50;;
48034;SDS011;33812;46.480;6.834;2023-03-13T05:03:07;4.68;;;0.60;;
48034;SDS011;33812;46.480;6.834;2023-03-13T05:07:10;1.15;;;0.43;;
48034;SDS011;33812;46.480;6.834;2023-03-13T05:11:16;2.88;;;0.70;;
48034;SDS011;33812;46.480;6.834;2023-03-13T05:15:18;2.60;;;0.82;;
48034;SDS011;33812;46.480;6.834;2023-03-13T05:19:20;9.88;;;1.95;;
48034;SDS011;33812;46.480;6.834;2023-03-13T05:23:31;3.28;;;0.82;;
48034;SDS011;33812;46.480;6.834;2023-03-13T05:27:36;2.35;;;0.60;;
48034;SDS011;33812;46.480;6.834;2023-03-13T05:31:38;3.03;;;0.82;;
48034;SDS011;33812;46.480;6.834;2023-03-13T05:35:40;5.18;;;1.27;;
48034;SDS011;33812;46.480;6.834;2023-03-13T05:43:50;6.00;;;1.15;;
48034;SDS011;33812;46.480;6.834;2023-03-13T05:47:53;2.15;;;0.50;;
48034;SDS011;33812;46.480;6.834;2023-03-13T05:51:55;4.38;;;1.08;;
48034;SDS011;33812;46.480;6.834;2023-03-13T05:55:57;7.55;;;1.55;;
48034;SDS011;33812;46.480;6.834;2023-03-13T06:00:01;9.00;;;1.83;;
48034;SDS011;33812;46.480;6.834;2023-03-13T06:04:04;8.05;;;0.77;;
48034;SDS011;33812;46.480;6.834;2023-03-13T06:08:06;1.13;;;0.32;;
48034;SDS011;33812;46.480;6.834;2023-03-13T06:12:08;11.45;;;4.80;;
48034;SDS011;33812;46.480;6.834;2023-03-13T06:16:13;12.50;;;4.75;;
48034;SDS011;33812;46.480;6.834;2023-03-13T06:20:16;6.78;;;3.58;;
48034;SDS011;33812;46.480;6.834;2023-03-13T06:24:20;10.77;;;3.65;;
48034;SDS011;33812;46.480;6.834;2023-03-13T06:28:23;5.93;;;3.27;;
48034;SDS011;33812;46.480;6.834;2023-03-13T06:32:28;6.95;;;3.08;;
48034;SDS011;33812;46.480;6.834;2023-03-13T06:36:30;9.13;;;3.88;;
48034;SDS011;33812;46.480;6.834;2023-03-13T06:40:32;14.35;;;3.20;;
48034;SDS011;33812;46.480;6.834;2023-03-13T06:44:33;15.57;;;3.22;;
48034;SDS011;33812;46.480;6.834;2023-03-13T06:48:37;8.80;;;2.90;;
48034;SDS011;33812;46.480;6.834;2023-03-13T06:52:38;5.63;;;2.10;;
48034;SDS011;33812;46.480;6.834;2023-03-13T06:56:41;6.55;;;2.30;;
48034;SDS011;33812;46.480;6.834;2023-03-13T07:00:43;11.57;;;2.55;;
48034;SDS011;33812;46.480;6.834;2023-03-13T07:04:47;12.02;;;3.40;;
48034;SDS011;33812;46.480;6.834;2023-03-13T07:08:48;18.02;;;4.07;;
48034;SDS011;33812;46.480;6.834;2023-03-13T07:12:51;8.32;;;1.80;;
48034;SDS011;33812;46.480;6.834;2023-03-13T07:16:54;7.50;;;1.85;;
48034;SDS011;33812;46.480;6.834;2023-03-13T07:20:58;4.22;;;1.98;;
48034;SDS011;33812;46.480;6.834;2023-03-13T07:25:04;11.60;;;2.67;;
48034;SDS011;33812;46.480;6.834;2023-03-13T07:29:06;10.48;;;2.60;;
48034;SDS011;33812;46.480;6.834;2023-03-13T07:33:08;2.75;;;1.25;;
48034;SDS011;33812;46.480;6.834;2023-03-13T07:37:12;7.95;;;2.70;;
48034;SDS011;33812;46.480;6.834;2023-03-13T07:41:14;5.20;;;1.50;;
48034;SDS011;33812;46.480;6.834;2023-03-13T07:45:16;8.57;;;2.13;;
48034;SDS011;33812;46.480;6.834;2023-03-13T07:49:18;3.50;;;1.40;;
48034;SDS011;33812;46.480;6.834;2023-03-13T07:53:22;6.57;;;1.65;;
48034;SDS011;33812;46.480;6.834;2023-03-13T07:57:24;4.07;;;1.33;;
48034;SDS011;33812;46.480;6.834;2023-03-13T08:01:27;4.93;;;1.42;;
48034;SDS011;33812;46.480;6.834;2023-03-13T08:05:29;2.95;;;1.10;;
48034;SDS011;33812;46.480;6.834;2023-03-13T08:09:37;3.13;;;1.05;;
48034;SDS011;33812;46.480;6.834;2023-03-13T08:13:46;11.18;;;2.05;;
48034;SDS011;33812;46.480;6.834;2023-03-13T08:17:49;6.03;;;1.33;;
48034;SDS011;33812;46.480;6.834;2023-03-13T08:21:52;7.03;;;1.38;;
48034;SDS011;33812;46.480;6.834;2023-03-13T08:26:00;4.82;;;1.23;;
48034;SDS011;33812;46.480;6.834;2023-03-13T08:30:04;8.43;;;1.77;;
48034;SDS011;33812;46.480;6.834;2023-03-13T08:34:07;2.55;;;0.82;;
48034;SDS011;33812;46.480;6.834;2023-03-13T08:38:08;2.65;;;1.10;;
48034;SDS011;33812;46.480;6.834;2023-03-13T08:42:11;4.07;;;1.10;;
48034;SDS011;33812;46.480;6.834;2023-03-13T08:46:14;1.92;;;0.63;;
48034;SDS011;33812;46.480;6.834;2023-03-13T08:50:16;5.80;;;1.50;;
48034;SDS011;33812;46.480;6.834;2023-03-13T08:54:18;3.78;;;1.20;;
48034;SDS011;33812;46.480;6.834;2023-03-13T08:58:21;3.08;;;0.93;;
48034;SDS011;33812;46.480;6.834;2023-03-13T09:02:23;1.50;;;0.80;;
48034;SDS011;33812;46.480;6.834;2023-03-13T09:06:24;2.97;;;0.82;;
48034;SDS011;33812;46.480;6.834;2023-03-13T09:10:26;8.38;;;1.90;;
48034;SDS011;33812;46.480;6.834;2023-03-13T09:14:29;2.10;;;0.80;;
48034;SDS011;33812;46.480;6.834;2023-03-13T09:18:31;2.17;;;0.90;;
48034;SDS011;33812;46.480;6.834;2023-03-13T09:22:33;2.63;;;0.70;;
48034;SDS011;33812;46.480;6.834;2023-03-13T09:26:36;1.95;;;0.63;;
48034;SDS011;33812;46.480;6.834;2023-03-13T09:30:39;9.63;;;1.70;;
48034;SDS011;33812;46.480;6.834;2023-03-13T09:34:41;4.05;;;0.88;;
48034;SDS011;33812;46.480;6.834;2023-03-13T09:38:43;2.65;;;0.70;;
48034;SDS011;33812;46.480;6.834;2023-03-13T09:42:46;2.95;;;0.73;;
48034;SDS011;33812;46.480;6.834;2023-03-13T09:46:57;1.05;;;0.52;;
48034;SDS011;33812;46.480;6.834;2023-03-13T09:51:02;2.15;;;0.75;;
48034;SDS011;33812;46.480;6.834;2023-03-13T09:55:13;4.22;;;0.93;;
48034;SDS011;33812;46.480;6.834;2023-03-13T09:59:21;1.75;;;0.63;;
48034;SDS011;33812;46.480;6.834;2023-03-13T10:03:32;2.22;;;0.77;;
48034;SDS011;33812;46.480;6.834;2023-03-13T10:07:39;5.18;;;1.20;;
48034;SDS011;33812;46.480;6.834;2023-03-13T10:11:42;5.22;;;1.30;;
48034;SDS011;33812;46.480;6.834;2023-03-13T10:15:49;3.33;;;0.93;;
48034;SDS011;33812;46.480;6.834;2023-03-13T10:19:57;4.60;;;1.08;;
48034;SDS011;33812;46.480;6.834;2023-03-13T10:24:10;1.17;;;0.50;;
48034;SDS011;33812;46.480;6.834;2023-03-13T10:28:17;0.77;;;0.30;;
48034;SDS011;33812;46.480;6.834;2023-03-13T10:32:28;1.65;;;0.57;;
48034;SDS011;33812;46.480;6.834;2023-03-13T10:40:42;5.15;;;1.27;;
48034;SDS011;33812;46.480;6.834;2023-03-13T10:44:44;11.27;;;2.05;;
48034;SDS011;33812;46.480;6.834;2023-03-13T10:48:46;1.45;;;0.68;;
48034;SDS011;33812;46.480;6.834;2023-03-13T10:52:49;5.43;;;1.05;;
48034;SDS011;33812;46.480;6.834;2023-03-13T10:56:52;3.92;;;1.05;;
48034;SDS011;33812;46.480;6.834;2023-03-13T11:01:13;1.27;;;0.47;;
48034;SDS011;33812;46.480;6.834;2023-03-13T11:05:31;2.47;;;0.73;;
48034;SDS011;33812;46.480;6.834;2023-03-13T11:09:40;2.58;;;0.85;;
48034;SDS011;33812;46.480;6.834;2023-03-13T11:13:43;3.47;;;0.90;;
48034;SDS011;33812;46.480;6.834;2023-03-13T11:17:45;4.15;;;1.10;;
48034;SDS011;33812;46.480;6.834;2023-03-13T11:21:56;4.60;;;1.15;;
48034;SDS011;33812;46.480;6.834;2023-03-13T11:26:21;9.48;;;1.85;;
48034;SDS011;33812;46.480;6.834;2023-03-13T11:30:39;2.83;;;0.65;;
48034;SDS011;33812;46.480;6.834;2023-03-13T11:34:50;4.22;;;0.77;;
48034;SDS011;33812;46.480;6.834;2023-03-13T11:38:58;2.60;;;0.65;;
48034;SDS011;33812;46.480;6.834;2023-03-13T11:47:34;5.35;;;1.08;;
48034;SDS011;33812;46.480;6.834;2023-03-13T11:51:51;3.42;;;0.68;;
48034;SDS011;33812;46.480;6.834;2023-03-13T11:56:09;6.28;;;1.20;;
48034;SDS011;33812;46.480;6.834;2023-03-13T12:00:21;3.20;;;0.82;;
48034;SDS011;33812;46.480;6.834;2023-03-13T12:04:31;1.88;;;0.57;;
48034;SDS011;33812;46.480;6.834;2023-03-13T12:08:39;2.47;;;0.80;;
48034;SDS011;33812;46.480;6.834;2023-03-13T12:12:46;0.57;;;0.35;;
48034;SDS011;33812;46.480;6.834;2023-03-13T12:16:58;2.30;;;0.65;;
48034;SDS011;33812;46.480;6.834;2023-03-13T12:21:06;7.00;;;1.67;;
48034;SDS011;33812;46.480;6.834;2023-03-13T12:25:20;4.25;;;0.95;;
48034;SDS011;33812;46.480;6.834;2023-03-13T12:29:37;2.55;;;0.55;;
48034;SDS011;33812;46.480;6.834;2023-03-13T12:37:57;9.23;;;1.77;;
48034;SDS011;33812;46.480;6.834;2023-03-13T12:46:35;1.70;;;0.60;;
48034;SDS011;33812;46.480;6.834;2023-03-13T12:50:46;1.20;;;0.30;;
48034;SDS011;33812;46.480;6.834;2023-03-13T12:59:35;3.60;;;0.90;;
48034;SDS011;33812;46.480;6.834;2023-03-13T13:12:00;3.67;;;0.88;;
48034;SDS011;33812;46.480;6.834;2023-03-13T13:16:05;2.38;;;0.73;;
48034;SDS011;33812;46.480;6.834;2023-03-13T13:24:49;1.80;;;0.50;;
48034;SDS011;33812;46.480;6.834;2023-03-13T13:28:56;2.55;;;0.75;;
48034;SDS011;33812;46.480;6.834;2023-03-13T13:37:35;1.33;;;0.38;;
48034;SDS011;33812;46.480;6.834;2023-03-13T13:45:53;7.00;;;1.63;;
48034;SDS011;33812;46.480;6.834;2023-03-13T13:49:59;2.75;;;0.80;;
48034;SDS011;33812;46.480;6.834;2023-03-13T13:54:03;2.92;;;0.77;;
48034;SDS011;33812;46.480;6.834;2023-03-13T13:58:29;6.90;;;1.35;;
48034;SDS011;33812;46.480;6.834;2023-03-13T14:02:33;3.10;;;0.73;;
48034;SDS011;33812;46.480;6.834;2023-03-13T14:06:37;1.60;;;0.50;;
48034;SDS011;33812;46.480;6.834;2023-03-13T14:10:45;4.50;;;0.50;;
48034;SDS011;33812;46.480;6.834;2023-03-13T14:19:25;10.80;;;2.08;;
48034;SDS011;33812;46.480;6.834;2023-03-13T14:23:36;1.23;;;0.50;;
48034;SDS011;33812;46.480;6.834;2023-03-13T14:27:42;6.57;;;1.45;;
48034;SDS011;33812;46.480;6.834;2023-03-13T14:35:52;5.65;;;1.05;;
48034;SDS011;33812;46.480;6.834;2023-03-13T14:40:05;5.07;;;0.70;;
48034;SDS011;33812;46.480;6.834;2023-03-13T14:44:14;2.63;;;0.55;;
48034;SDS011;33812;46.480;6.834;2023-03-13T14:48:26;11.18;;;0.80;;
48034;SDS011;33812;46.480;6.834;2023-03-13T14:52:43;4.35;;;0.68;;
48034;SDS011;33812;46.480;6.834;2023-03-13T14:57:01;2.05;;;0.57;;
48034;SDS011;33812;46.480;6.834;2023-03-13T15:01:20;0.85;;;0.38;;
48034;SDS011;33812;46.480;6.834;2023-03-13T15:05:36;3.13;;;0.63;;
48034;SDS011;33812;46.480;6.834;2023-03-13T15:09:40;3.00;;;0.60;;
48034;SDS011;33812;46.480;6.834;2023-03-13T15:13:45;5.10;;;1.10;;
48034;SDS011;33812;46.480;6.834;2023-03-13T15:17:47;2.58;;;0.70;;
48034;SDS011;33812;46.480;6.834;2023-03-13T15:21:51;7.50;;;1.35;;
48034;SDS011;33812;46.480;6.834;2023-03-13T15:25:53;4.28;;;0.50;;
48034;SDS011;33812;46.480;6.834;2023-03-13T15:29:56;5.18;;;1.05;;
48034;SDS011;33812;46.480;6.834;2023-03-13T15:33:58;3.45;;;0.63;;
48034;SDS011;33812;46.480;6.834;2023-03-13T15:38:02;0.80;;;0.40;;
48034;SDS011;33812;46.480;6.834;2023-03-13T15:42:04;2.60;;;0.47;;
48034;SDS011;33812;46.480;6.834;2023-03-13T15:46:08;1.33;;;0.50;;
48034;SDS011;33812;46.480;6.834;2023-03-13T15:50:13;2.15;;;0.65;;
48034;SDS011;33812;46.480;6.834;2023-03-13T15:54:18;1.80;;;0.35;;
48034;SDS011;33812;46.480;6.834;2023-03-13T15:58:20;1.77;;;0.52;;
48034;SDS011;33812;46.480;6.834;2023-03-13T16:02:23;5.38;;;1.10;;
48034;SDS011;33812;46.480;6.834;2023-03-13T16:06:25;2.83;;;0.65;;
48034;SDS011;33812;46.480;6.834;2023-03-13T16:10:31;5.25;;;1.33;;
48034;SDS011;33812;46.480;6.834;2023-03-13T16:14:33;1.42;;;0.45;;
48034;SDS011;33812;46.480;6.834;2023-03-13T16:18:36;3.65;;;0.75;;
48034;SDS011;33812;46.480;6.834;2023-03-13T16:22:37;5.32;;;0.55;;
48034;SDS011;33812;46.480;6.834;2023-03-13T16:26:41;7.03;;;0.95;;
48034;SDS011;33812;46.480;6.834;2023-03-13T16:30:44;6.85;;;0.55;;
48034;SDS011;33812;46.480;6.834;2023-03-13T16:34:49;7.97;;;1.05;;
48034;SDS011;33812;46.480;6.834;2023-03-13T16:38:51;11.77;;;0.85;;
48034;SDS011;33812;46.480;6.834;2023-03-13T16:42:56;7.07;;;0.57;;
48034;SDS011;33812;46.480;6.834;2023-03-13T16:46:58;10.98;;;1.75;;
48034;SDS011;33812;46.480;6.834;2023-03-13T16:51:05;3.85;;;0.93;;
48034;SDS011;33812;46.480;6.834;2023-03-13T16:55:17;3.42;;;0.85;;
48034;SDS011;33812;46.480;6.834;2023-03-13T16:59:34;3.38;;;0.95;;
48034;SDS011;33812;46.480;6.834;2023-03-13T17:03:37;7.57;;;1.02;;
48034;SDS011;33812;46.480;6.834;2023-03-13T17:07:40;7.18;;;0.95;;
48034;SDS011;33812;46.480;6.834;2023-03-13T17:11:44;11.55;;;2.03;;
48034;SDS011;33812;46.480;6.834;2023-03-13T17:15:49;5.85;;;1.27;;
48034;SDS011;33812;46.480;6.834;2023-03-13T17:19:58;5.10;;;1.00;;
48034;SDS011;33812;46.480;6.834;2023-03-13T17:28:12;3.47;;;0.90;;
48034;SDS011;33812;46.480;6.834;2023-03-13T17:40:25;4.65;;;0.75;;
48034;SDS011;33812;46.480;6.834;2023-03-13T17:44:32;6.28;;;1.30;;
48034;SDS011;33812;46.480;6.834;2023-03-13T17:52:43;1.52;;;0.40;;
48034;SDS011;33812;46.480;6.834;2023-03-13T17:56:48;6.88;;;1.27;;
48034;SDS011;33812;46.480;6.834;2023-03-13T18:00:53;7.13;;;0.57;;
48034;SDS011;33812;46.480;6.834;2023-03-13T18:05:03;5.03;;;1.35;;
48034;SDS011;33812;46.480;6.834;2023-03-13T18:09:06;4.90;;;1.52;;
48034;SDS011;33812;46.480;6.834;2023-03-13T18:13:15;6.07;;;1.17;;
48034;SDS011;33812;46.480;6.834;2023-03-13T18:17:18;9.23;;;1.70;;
48034;SDS011;33812;46.480;6.834;2023-03-13T18:21:23;12.40;;;1.88;;
48034;SDS011;33812;46.480;6.834;2023-03-13T18:25:29;7.95;;;1.55;;
48034;SDS011;33812;46.480;6.834;2023-03-13T18:29:32;4.00;;;1.65;;
48034;SDS011;33812;46.480;6.834;2023-03-13T18:33:43;12.73;;;2.38;;
48034;SDS011;33812;46.480;6.834;2023-03-13T18:37:48;5.38;;;1.38;;
48034;SDS011;33812;46.480;6.834;2023-03-13T18:41:54;10.00;;;2.15;;
48034;SDS011;33812;46.480;6.834;2023-03-13T18:45:56;7.45;;;1.70;;
48034;SDS011;33812;46.480;6.834;2023-03-13T18:58:18;5.32;;;1.45;;
48034;SDS011;33812;46.480;6.834;2023-03-13T19:02:21;10.75;;;2.58;;
48034;SDS011;33812;46.480;6.834;2023-03-13T19:10:31;11.38;;;2.65;;
48034;SDS011;33812;46.480;6.834;2023-03-13T19:18:40;4.28;;;1.60;;
48034;SDS011;33812;46.480;6.834;2023-03-13T19:22:43;6.93;;;1.70;;
48034;SDS011;33812;46.480;6.834;2023-03-13T19:26:46;5.70;;;1.38;;
48034;SDS011;33812;46.480;6.834;2023-03-13T19:30:51;16.00;;;1.55;;
48034;SDS011;33812;46.480;6.834;2023-03-13T19:34:53;7.20;;;1.35;;
48034;SDS011;33812;46.480;6.834;2023-03-13T19:38:55;6.18;;;1.77;;
48034;SDS011;33812;46.480;6.834;2023-03-13T19:42:58;11.27;;;1.60;;
48034;SDS011;33812;46.480;6.834;2023-03-13T19:47:00;4.45;;;1.17;;
48034;SDS011;33812;46.480;6.834;2023-03-13T19:51:02;13.27;;;1.63;;
48034;SDS011;33812;46.480;6.834;2023-03-13T19:55:04;10.57;;;1.55;;
48034;SDS011;33812;46.480;6.834;2023-03-13T19:59:12;8.57;;;1.30;;
48034;SDS011;33812;46.480;6.834;2023-03-13T20:03:15;11.27;;;1.67;;
48034;SDS011;33812;46.480;6.834;2023-03-13T20:07:17;5.97;;;1.35;;
48034;SDS011;33812;46.480;6.834;2023-03-13T20:11:19;8.20;;;1.50;;
48034;SDS011;33812;46.480;6.834;2023-03-13T20:15:22;6.65;;;1.45;;
48034;SDS011;33812;46.480;6.834;2023-03-13T20:19:24;4.72;;;1.55;;
48034;SDS011;33812;46.480;6.834;2023-03-13T20:23:29;6.77;;;1.30;;
48034;SDS011;33812;46.480;6.834;2023-03-13T20:27:32;14.25;;;2.08;;
48034;SDS011;33812;46.480;6.834;2023-03-13T20:31:35;9.10;;;1.40;;
48034;SDS011;33812;46.480;6.834;2023-03-13T20:35:38;9.18;;;2.17;;
48034;SDS011;33812;46.480;6.834;2023-03-13T20:39:41;4.40;;;1.58;;
48034;SDS011;33812;46.480;6.834;2023-03-13T20:43:42;15.15;;;2.60;;
48034;SDS011;33812;46.480;6.834;2023-03-13T20:47:46;19.55;;;4.53;;
48034;SDS011;33812;46.480;6.834;2023-03-13T20:51:47;10.05;;;1.98;;
48034;SDS011;33812;46.480;6.834;2023-03-13T20:55:49;6.20;;;1.40;;
48034;SDS011;33812;46.480;6.834;2023-03-13T20:59:53;5.78;;;1.17;;
48034;SDS011;33812;46.480;6.834;2023-03-13T21:03:56;7.38;;;1.48;;
48034;SDS011;33812;46.480;6.834;2023-03-13T21:07:58;7.90;;;1.70;;
48034;SDS011;33812;46.480;6.834;2023-03-13T21:12:00;5.90;;;1.33;;
48034;SDS011;33812;46.480;6.834;2023-03-13T21:16:03;3.33;;;0.80;;
48034;SDS011;33812;46.480;6.834;2023-03-13T21:20:08;3.25;;;0.88;;
48034;SDS011;33812;46.480;6.834;2023-03-13T21:24:11;6.78;;;1.55;;
48034;SDS011;33812;46.480;6.834;2023-03-13T21:28:13;6.93;;;1.50;;
48034;SDS011;33812;46.480;6.834;2023-03-13T21:32:16;2.30;;;0.70;;
48034;SDS011;33812;46.480;6.834;2023-03-13T21:36:23;2.72;;;0.90;;
48034;SDS011;33812;46.480;6.834;2023-03-13T21:44:48;4.75;;;1.05;;
48034;SDS011;33812;46.480;6.834;2023-03-13T21:48:51;2.90;;;0.80;;
48034;SDS011;33812;46.480;6.834;2023-03-13T22:01:24;1.77;;;0.60;;
48034;SDS011;33812;46.480;6.834;2023-03-13T22:05:29;1.45;;;0.50;;
48034;SDS011;33812;46.480;6.834;2023-03-13T22:13:34;3.75;;;0.98;;
48034;SDS011;33812;46.480;6.834;2023-03-13T22:17:36;2.50;;;0.85;;
48034;SDS011;33812;46.480;6.834;2023-03-13T22:21:40;3.50;;;0.93;;
48034;SDS011;33812;46.480;6.834;2023-03-13T22:25:44;7.38;;;1.73;;
48034;SDS011;33812;46.480;6.834;2023-03-13T22:29:50;5.93;;;1.57;;
48034;SDS011;33812;46.480;6.834;2023-03-13T22:33:54;10.13;;;1.90;;
48034;SDS011;33812;46.480;6.834;2023-03-13T22:37:56;4.03;;;0.97;;
48034;SDS011;33812;46.480;6.834;2023-03-13T22:42:00;4.65;;;1.10;;
48034;SDS011;33812;46.480;6.834;2023-03-13T22:46:02;3.88;;;1.00;;
48034;SDS011;33812;46.480;6.834;2023-03-13T22:50:04;4.57;;;1.13;;
48034;SDS011;33812;46.480;6.834;2023-03-13T22:54:06;8.77;;;1.60;;
48034;SDS011;33812;46.480;6.834;2023-03-13T22:58:11;10.20;;;2.08;;
48034;SDS011;33812;46.480;6.834;2023-03-13T23:02:14;3.20;;;0.80;;
48034;SDS011;33812;46.480;6.834;2023-03-13T23:06:17;4.88;;;1.17;;
48034;SDS011;33812;46.480;6.834;2023-03-13T23:10:20;4.70;;;1.17;;
48034;SDS011;33812;46.480;6.834;2023-03-13T23:14:23;6.18;;;1.40;;
48034;SDS011;33812;46.480;6.834;2023-03-13T23:18:30;4.10;;;0.80;;
48034;SDS011;33812;46.480;6.834;2023-03-13T23:22:32;3.75;;;1.00;;
48034;SDS011;33812;46.480;6.834;2023-03-13T23:26:50;4.15;;;0.90;;
48034;SDS011;33812;46.480;6.834;2023-03-13T23:30:53;2.30;;;0.70;;
48034;SDS011;33812;46.480;6.834;2023-03-13T23:34:55;2.15;;;0.77;;
48034;SDS011;33812;46.480;6.834;2023-03-13T23:39:00;3.83;;;1.00;;
48034;SDS011;33812;46.480;6.834;2023-03-13T23:43:03;5.25;;;1.23;;
48034;SDS011;33812;46.480;6.834;2023-03-13T23:47:06;5.97;;;1.23;;
48034;SDS011;33812;46.480;6.834;2023-03-13T23:51:08;4.80;;;1.20;;
48034;SDS011;33812;46.480;6.834;2023-03-13T23:55:10;7.57;;;1.58;;
48034;SDS011;33812;46.480;6.834;2023-03-13T23:59:12;6.18;;;1.40;;
